sensor_id;sensor_type;location;lat;lon;timestamp;temperature;humidity
1103;DHT22;538;42.654;23.376;2023-06-01T00:00:56;16.10;56.20
1103;DHT22;538;42.654;23.376;2023-06-01T00:03:24;16.10;56.70
1103;DHT22;538;42.654;23.376;2023-06-01T00:05:53;16.20;58.40
1103;DHT22;538;42.654;23.376;2023-06-01T00:10:49;16.10;60.50
1103;DHT22;538;42.654;23.376;2023-06-01T00:13:16;16.30;61.20
1103;DHT22;538;42.654;23.376;2023-06-01T00:15:43;16.10;61.50
1103;DHT22;538;42.654;23.376;2023-06-01T00:18:11;16.20;61.50
1103;DHT22;538;42.654;23.376;2023-06-01T00:20:41;16.30;62.00
1103;DHT22;538;42.654;23.376;2023-06-01T00:23:10;16.30;61.50
1103;DHT22;538;42.654;23.376;2023-06-01T00:28:04;16.20;60.30
1103;DHT22;538;42.654;23.376;2023-06-01T00:32:58;15.60;57.90
1103;DHT22;538;42.654;23.376;2023-06-01T00:35:25;15.30;61.70
1103;DHT22;538;42.654;23.376;2023-06-01T00:40:21;14.90;70.60
1103;DHT22;538;42.654;23.376;2023-06-01T00:42:48;14.80;73.30
1103;DHT22;538;42.654;23.376;2023-06-01T00:45:16;14.80;75.50
1103;DHT22;538;42.654;23.376;2023-06-01T00:47:43;14.70;76.80
1103;DHT22;538;42.654;23.376;2023-06-01T00:50:11;14.70;76.00
1103;DHT22;538;42.654;23.376;2023-06-01T00:55:06;14.90;76.20
1103;DHT22;538;42.654;23.376;2023-06-01T00:57:35;14.80;75.10
1103;DHT22;538;42.654;23.376;2023-06-01T01:00:03;14.70;74.90
1103;DHT22;538;42.654;23.376;2023-06-01T01:02:36;14.70;76.70
1103;DHT22;538;42.654;23.376;2023-06-01T01:05:05;14.60;77.00
1103;DHT22;538;42.654;23.376;2023-06-01T01:07:42;14.30;78.80
1103;DHT22;538;42.654;23.376;2023-06-01T01:10:16;14.30;79.80
1103;DHT22;538;42.654;23.376;2023-06-01T01:12:53;14.30;82.50
1103;DHT22;538;42.654;23.376;2023-06-01T01:15:24;14.30;83.70
1103;DHT22;538;42.654;23.376;2023-06-01T01:17:59;14.50;84.00
1103;DHT22;538;42.654;23.376;2023-06-01T01:20:31;14.50;83.70
1103;DHT22;538;42.654;23.376;2023-06-01T01:23:17;14.70;83.50
1103;DHT22;538;42.654;23.376;2023-06-01T01:26:13;14.50;82.30
1103;DHT22;538;42.654;23.376;2023-06-01T01:28:45;14.70;81.50
1103;DHT22;538;42.654;23.376;2023-06-01T01:31:17;14.90;81.60
1103;DHT22;538;42.654;23.376;2023-06-01T01:33:46;14.70;80.30
1103;DHT22;538;42.654;23.376;2023-06-01T01:36:13;14.90;79.00
1103;DHT22;538;42.654;23.376;2023-06-01T01:38:42;14.90;78.40
1103;DHT22;538;42.654;23.376;2023-06-01T01:41:09;14.90;78.00
1103;DHT22;538;42.654;23.376;2023-06-01T01:43:37;14.90;77.50
1103;DHT22;538;42.654;23.376;2023-06-01T01:46:22;14.90;77.20
1103;DHT22;538;42.654;23.376;2023-06-01T01:48:58;14.90;75.30
1103;DHT22;538;42.654;23.376;2023-06-01T01:51:32;14.70;74.90
1103;DHT22;538;42.654;23.376;2023-06-01T01:54:04;14.50;77.20
1103;DHT22;538;42.654;23.376;2023-06-01T01:56:32;14.40;80.20
1103;DHT22;538;42.654;23.376;2023-06-01T02:01:32;14.50;82.20
1103;DHT22;538;42.654;23.376;2023-06-01T02:04:00;14.30;82.00
1103;DHT22;538;42.654;23.376;2023-06-01T02:08:54;14.70;82.70
1103;DHT22;538;42.654;23.376;2023-06-01T02:11:21;14.50;81.20
1103;DHT22;538;42.654;23.376;2023-06-01T02:13:48;14.70;80.70
1103;DHT22;538;42.654;23.376;2023-06-01T02:16:15;14.70;80.30
1103;DHT22;538;42.654;23.376;2023-06-01T02:18:44;14.60;80.20
1103;DHT22;538;42.654;23.376;2023-06-01T02:21:12;14.60;79.70
1103;DHT22;538;42.654;23.376;2023-06-01T02:23:40;14.70;79.10
1103;DHT22;538;42.654;23.376;2023-06-01T02:26:08;15.00;78.70
1103;DHT22;538;42.654;23.376;2023-06-01T02:28:36;14.70;77.70
1103;DHT22;538;42.654;23.376;2023-06-01T02:31:04;14.90;77.60
1103;DHT22;538;42.654;23.376;2023-06-01T02:33:31;14.80;78.40
1103;DHT22;538;42.654;23.376;2023-06-01T02:35:59;14.40;78.70
1103;DHT22;538;42.654;23.376;2023-06-01T02:38:26;14.60;80.90
1103;DHT22;538;42.654;23.376;2023-06-01T02:40:53;14.50;82.30
1103;DHT22;538;42.654;23.376;2023-06-01T02:43:20;14.50;83.00
1103;DHT22;538;42.654;23.376;2023-06-01T02:53:11;14.50;81.60
1103;DHT22;538;42.654;23.376;2023-06-01T03:05:29;14.20;87.30
1103;DHT22;538;42.654;23.376;2023-06-01T03:07:58;14.20;87.20
1103;DHT22;538;42.654;23.376;2023-06-01T03:10:27;14.30;87.40
1103;DHT22;538;42.654;23.376;2023-06-01T03:12:55;14.20;87.20
1103;DHT22;538;42.654;23.376;2023-06-01T03:15:22;14.40;86.40
1103;DHT22;538;42.654;23.376;2023-06-01T03:20:16;14.30;83.80
1103;DHT22;538;42.654;23.376;2023-06-01T03:22:44;14.10;84.00
1103;DHT22;538;42.654;23.376;2023-06-01T03:25:12;14.10;85.10
1103;DHT22;538;42.654;23.376;2023-06-01T03:27:41;14.20;86.00
1103;DHT22;538;42.654;23.376;2023-06-01T03:30:09;14.10;86.60
1103;DHT22;538;42.654;23.376;2023-06-01T03:35:05;14.30;85.50
1103;DHT22;538;42.654;23.376;2023-06-01T03:37:33;14.40;83.90
1103;DHT22;538;42.654;23.376;2023-06-01T03:40:00;14.30;84.70
1103;DHT22;538;42.654;23.376;2023-06-01T03:42:35;14.20;85.00
1103;DHT22;538;42.654;23.376;2023-06-01T03:45:05;14.20;86.50
1103;DHT22;538;42.654;23.376;2023-06-01T03:47:32;14.20;88.70
1103;DHT22;538;42.654;23.376;2023-06-01T03:50:00;14.20;89.40
1103;DHT22;538;42.654;23.376;2023-06-01T03:54:55;14.40;90.10
1103;DHT22;538;42.654;23.376;2023-06-01T03:59:49;14.50;90.00
1103;DHT22;538;42.654;23.376;2023-06-01T04:02:18;14.70;89.20
1103;DHT22;538;42.654;23.376;2023-06-01T04:09:44;14.80;87.40
1103;DHT22;538;42.654;23.376;2023-06-01T04:12:12;15.00;86.50
1103;DHT22;538;42.654;23.376;2023-06-01T04:14:40;15.10;85.20
1103;DHT22;538;42.654;23.376;2023-06-01T04:19:37;15.00;80.90
1103;DHT22;538;42.654;23.376;2023-06-01T04:22:05;14.90;81.60
1103;DHT22;538;42.654;23.376;2023-06-01T04:24:32;15.00;82.60
1103;DHT22;538;42.654;23.376;2023-06-01T04:26:59;14.80;83.90
1103;DHT22;538;42.654;23.376;2023-06-01T04:29:26;14.90;85.10
1103;DHT22;538;42.654;23.376;2023-06-01T04:36:50;15.10;83.40
1103;DHT22;538;42.654;23.376;2023-06-01T04:39:18;15.00;81.20
1103;DHT22;538;42.654;23.376;2023-06-01T04:41:45;15.10;82.20
1103;DHT22;538;42.654;23.376;2023-06-01T04:44:12;15.00;83.00
1103;DHT22;538;42.654;23.376;2023-06-01T04:46:39;15.00;84.20
1103;DHT22;538;42.654;23.376;2023-06-01T04:49:06;15.20;83.50
1103;DHT22;538;42.654;23.376;2023-06-01T04:51:33;15.10;82.40
1103;DHT22;538;42.654;23.376;2023-06-01T04:54:03;15.10;82.50
1103;DHT22;538;42.654;23.376;2023-06-01T05:03:55;15.70;80.40
1103;DHT22;538;42.654;23.376;2023-06-01T05:06:23;15.60;79.80
1103;DHT22;538;42.654;23.376;2023-06-01T05:08:51;15.70;79.90
1103;DHT22;538;42.654;23.376;2023-06-01T05:11:20;16.00;80.50
1103;DHT22;538;42.654;23.376;2023-06-01T05:13:47;15.90;80.00
1103;DHT22;538;42.654;23.376;2023-06-01T05:21:11;16.30;76.00
1103;DHT22;538;42.654;23.376;2023-06-01T05:26:06;16.50;73.70
1103;DHT22;538;42.654;23.376;2023-06-01T05:28:34;16.50;72.90
1103;DHT22;538;42.654;23.376;2023-06-01T05:31:02;16.50;72.10
1103;DHT22;538;42.654;23.376;2023-06-01T05:33:29;16.50;71.20
1103;DHT22;538;42.654;23.376;2023-06-01T05:38:24;16.70;70.00
1103;DHT22;538;42.654;23.376;2023-06-01T05:40:51;16.80;70.10
1103;DHT22;538;42.654;23.376;2023-06-01T05:43:18;16.70;70.00
1103;DHT22;538;42.654;23.376;2023-06-01T05:45:46;16.90;70.20
1103;DHT22;538;42.654;23.376;2023-06-01T05:48:14;16.80;70.10
1103;DHT22;538;42.654;23.376;2023-06-01T05:50:41;16.90;70.80
1103;DHT22;538;42.654;23.376;2023-06-01T05:53:08;16.90;70.30
1103;DHT22;538;42.654;23.376;2023-06-01T05:55:35;17.00;70.40
1103;DHT22;538;42.654;23.376;2023-06-01T05:58:02;17.20;70.50
1103;DHT22;538;42.654;23.376;2023-06-01T06:00:29;17.30;70.20
1103;DHT22;538;42.654;23.376;2023-06-01T06:02:58;17.20;69.70
1103;DHT22;538;42.654;23.376;2023-06-01T06:10:19;17.40;69.00
1103;DHT22;538;42.654;23.376;2023-06-01T06:12:46;17.40;67.30
1103;DHT22;538;42.654;23.376;2023-06-01T06:15:13;17.50;67.60
1103;DHT22;538;42.654;23.376;2023-06-01T06:17:41;17.50;68.00
1103;DHT22;538;42.654;23.376;2023-06-01T06:20:11;17.60;68.00
1103;DHT22;538;42.654;23.376;2023-06-01T06:22:41;17.60;67.80
1103;DHT22;538;42.654;23.376;2023-06-01T06:25:08;17.60;68.60
1103;DHT22;538;42.654;23.376;2023-06-01T06:27:37;17.70;69.10
1103;DHT22;538;42.654;23.376;2023-06-01T06:30:05;17.80;69.20
1103;DHT22;538;42.654;23.376;2023-06-01T06:32:32;17.90;69.40
1103;DHT22;538;42.654;23.376;2023-06-01T06:35:00;17.90;67.20
1103;DHT22;538;42.654;23.376;2023-06-01T06:37:29;18.00;66.30
1103;DHT22;538;42.654;23.376;2023-06-01T06:39:56;18.10;65.30
1103;DHT22;538;42.654;23.376;2023-06-01T06:42:24;18.00;65.30
1103;DHT22;538;42.654;23.376;2023-06-01T06:47:18;18.30;67.80
1103;DHT22;538;42.654;23.376;2023-06-01T06:49:46;18.20;67.10
1103;DHT22;538;42.654;23.376;2023-06-01T06:52:12;18.30;66.40
1103;DHT22;538;42.654;23.376;2023-06-01T06:54:41;18.30;65.50
1103;DHT22;538;42.654;23.376;2023-06-01T07:02:04;18.60;67.20
1103;DHT22;538;42.654;23.376;2023-06-01T07:09:26;18.70;65.70
1103;DHT22;538;42.654;23.376;2023-06-01T07:11:55;19.00;65.90
1103;DHT22;538;42.654;23.376;2023-06-01T07:26:39;19.20;57.40
1103;DHT22;538;42.654;23.376;2023-06-01T07:29:08;19.20;57.60
1103;DHT22;538;42.654;23.376;2023-06-01T07:31:35;19.40;58.40
1103;DHT22;538;42.654;23.376;2023-06-01T07:39:01;19.70;55.60
1103;DHT22;538;42.654;23.376;2023-06-01T07:43:57;20.00;57.60
1103;DHT22;538;42.654;23.376;2023-06-01T07:46:26;19.80;56.70
1103;DHT22;538;42.654;23.376;2023-06-01T07:48:53;20.10;57.00
1103;DHT22;538;42.654;23.376;2023-06-01T07:53:48;20.30;54.00
1103;DHT22;538;42.654;23.376;2023-06-01T07:56:15;20.50;53.20
1103;DHT22;538;42.654;23.376;2023-06-01T07:58:43;20.60;51.70
1103;DHT22;538;42.654;23.376;2023-06-01T08:01:10;20.50;48.00
1103;DHT22;538;42.654;23.376;2023-06-01T08:03:43;20.80;45.40
1103;DHT22;538;42.654;23.376;2023-06-01T08:06:10;20.90;45.70
1103;DHT22;538;42.654;23.376;2023-06-01T08:08:38;21.00;40.50
1103;DHT22;538;42.654;23.376;2023-06-01T08:13:33;21.00;37.80
1103;DHT22;538;42.654;23.376;2023-06-01T08:16:01;21.00;38.20
1103;DHT22;538;42.654;23.376;2023-06-01T08:20:57;21.00;42.10
1103;DHT22;538;42.654;23.376;2023-06-01T08:25:53;21.00;39.00
1103;DHT22;538;42.654;23.376;2023-06-01T08:28:20;21.00;40.60
1103;DHT22;538;42.654;23.376;2023-06-01T08:30:47;20.90;39.00
1103;DHT22;538;42.654;23.376;2023-06-01T08:33:14;21.10;38.30
1103;DHT22;538;42.654;23.376;2023-06-01T08:35:42;21.30;40.20
1103;DHT22;538;42.654;23.376;2023-06-01T08:38:10;21.40;42.00
1103;DHT22;538;42.654;23.376;2023-06-01T08:43:12;21.60;41.10
1103;DHT22;538;42.654;23.376;2023-06-01T08:45:40;21.90;40.60
1103;DHT22;538;42.654;23.376;2023-06-01T08:48:08;21.90;38.30
1103;DHT22;538;42.654;23.376;2023-06-01T08:50:35;22.20;37.70
1103;DHT22;538;42.654;23.376;2023-06-01T08:53:04;22.20;36.40
1103;DHT22;538;42.654;23.376;2023-06-01T08:55:34;22.50;33.10
1103;DHT22;538;42.654;23.376;2023-06-01T08:58:01;22.50;32.90
1103;DHT22;538;42.654;23.376;2023-06-01T09:00:30;22.70;33.40
1103;DHT22;538;42.654;23.376;2023-06-01T09:02:59;22.60;33.50
1103;DHT22;538;42.654;23.376;2023-06-01T09:05:26;22.90;34.20
1103;DHT22;538;42.654;23.376;2023-06-01T09:07:53;22.80;34.20
1103;DHT22;538;42.654;23.376;2023-06-01T09:10:23;23.10;34.40
1103;DHT22;538;42.654;23.376;2023-06-01T09:12:53;23.20;34.50
1103;DHT22;538;42.654;23.376;2023-06-01T09:15:21;23.30;31.60
1103;DHT22;538;42.654;23.376;2023-06-01T09:17:50;23.40;31.90
1103;DHT22;538;42.654;23.376;2023-06-01T09:20:24;23.50;31.80
1103;DHT22;538;42.654;23.376;2023-06-01T09:25:23;23.80;29.60
1103;DHT22;538;42.654;23.376;2023-06-01T09:27:54;24.00;28.00
1103;DHT22;538;42.654;23.376;2023-06-01T09:30:22;24.10;28.20
1103;DHT22;538;42.654;23.376;2023-06-01T09:32:51;24.20;27.20
1103;DHT22;538;42.654;23.376;2023-06-01T09:35:41;24.60;25.30
1103;DHT22;538;42.654;23.376;2023-06-01T09:38:08;24.60;25.90
1103;DHT22;538;42.654;23.376;2023-06-01T09:40:39;24.90;24.70
1103;DHT22;538;42.654;23.376;2023-06-01T09:43:22;25.10;25.30
1103;DHT22;538;42.654;23.376;2023-06-01T09:46:04;25.40;24.30
1103;DHT22;538;42.654;23.376;2023-06-01T09:51:00;26.00;20.00
1103;DHT22;538;42.654;23.376;2023-06-01T09:55:59;26.60;19.60
1103;DHT22;538;42.654;23.376;2023-06-01T09:58:28;26.80;18.30
1103;DHT22;538;42.654;23.376;2023-06-01T10:00:55;27.00;18.00
1103;DHT22;538;42.654;23.376;2023-06-01T10:03:25;27.30;17.90
1103;DHT22;538;42.654;23.376;2023-06-01T10:10:53;28.00;14.40
1103;DHT22;538;42.654;23.376;2023-06-01T10:13:21;28.20;13.90
1103;DHT22;538;42.654;23.376;2023-06-01T10:15:54;28.00;13.40
1103;DHT22;538;42.654;23.376;2023-06-01T10:18:21;27.80;10.20
1103;DHT22;538;42.654;23.376;2023-06-01T10:20:52;27.30;8.50
1103;DHT22;538;42.654;23.376;2023-06-01T10:23:19;26.80;8.30
1103;DHT22;538;42.654;23.376;2023-06-01T10:25:49;26.10;8.70
1103;DHT22;538;42.654;23.376;2023-06-01T10:28:17;25.30;9.10
1103;DHT22;538;42.654;23.376;2023-06-01T10:30:45;24.90;10.50
1103;DHT22;538;42.654;23.376;2023-06-01T10:33:14;24.50;11.10
1103;DHT22;538;42.654;23.376;2023-06-01T10:36:02;24.20;11.60
1103;DHT22;538;42.654;23.376;2023-06-01T10:38:30;23.90;12.20
1103;DHT22;538;42.654;23.376;2023-06-01T10:41:27;23.80;11.70
1103;DHT22;538;42.654;23.376;2023-06-01T10:46:43;23.50;9.90
1103;DHT22;538;42.654;23.376;2023-06-01T10:49:11;23.20;9.20
1103;DHT22;538;42.654;23.376;2023-06-01T10:57:23;23.20;11.20
1103;DHT22;538;42.654;23.376;2023-06-01T11:02:58;23.50;11.90
1103;DHT22;538;42.654;23.376;2023-06-01T11:05:44;23.30;11.70
1103;DHT22;538;42.654;23.376;2023-06-01T11:08:51;23.10;11.60
1103;DHT22;538;42.654;23.376;2023-06-01T11:11:18;23.00;12.00
1103;DHT22;538;42.654;23.376;2023-06-01T11:14:09;22.80;12.80
1103;DHT22;538;42.654;23.376;2023-06-01T11:16:37;22.80;13.30
1103;DHT22;538;42.654;23.376;2023-06-01T11:19:05;22.60;12.60
1103;DHT22;538;42.654;23.376;2023-06-01T11:21:38;22.50;12.90
1103;DHT22;538;42.654;23.376;2023-06-01T11:24:10;22.30;13.20
1103;DHT22;538;42.654;23.376;2023-06-01T11:26:40;22.10;14.20
1103;DHT22;538;42.654;23.376;2023-06-01T11:29:15;22.10;13.90
1103;DHT22;538;42.654;23.376;2023-06-01T11:31:44;21.90;14.20
1103;DHT22;538;42.654;23.376;2023-06-01T11:34:13;21.70;15.40
1103;DHT22;538;42.654;23.376;2023-06-01T11:36:43;21.40;17.40
1103;DHT22;538;42.654;23.376;2023-06-01T11:39:20;21.10;19.80
1103;DHT22;538;42.654;23.376;2023-06-01T11:41:49;20.90;21.60
1103;DHT22;538;42.654;23.376;2023-06-01T11:46:51;19.80;26.80
1103;DHT22;538;42.654;23.376;2023-06-01T11:49:19;19.40;31.10
1103;DHT22;538;42.654;23.376;2023-06-01T11:51:47;19.10;34.50
1103;DHT22;538;42.654;23.376;2023-06-01T11:54:20;18.70;44.70
1103;DHT22;538;42.654;23.376;2023-06-01T11:56:48;18.60;42.60
1103;DHT22;538;42.654;23.376;2023-06-01T11:59:15;18.40;41.50
1103;DHT22;538;42.654;23.376;2023-06-01T12:01:43;18.10;42.70
1103;DHT22;538;42.654;23.376;2023-06-01T12:04:12;18.00;42.10
1103;DHT22;538;42.654;23.376;2023-06-01T12:09:09;17.90;46.90
1103;DHT22;538;42.654;23.376;2023-06-01T12:11:39;17.80;38.50
1103;DHT22;538;42.654;23.376;2023-06-01T12:14:08;17.70;43.60
1103;DHT22;538;42.654;23.376;2023-06-01T12:16:52;17.70;44.70
1103;DHT22;538;42.654;23.376;2023-06-01T12:19:20;17.60;43.70
1103;DHT22;538;42.654;23.376;2023-06-01T12:21:48;17.60;41.70
1103;DHT22;538;42.654;23.376;2023-06-01T12:24:18;17.60;46.10
1103;DHT22;538;42.654;23.376;2023-06-01T12:26:45;17.60;56.30
1103;DHT22;538;42.654;23.376;2023-06-01T12:29:14;17.60;63.70
1103;DHT22;538;42.654;23.376;2023-06-01T12:31:55;17.50;70.20
1103;DHT22;538;42.654;23.376;2023-06-01T12:39:31;17.40;65.80
1103;DHT22;538;42.654;23.376;2023-06-01T12:42:02;17.60;67.10
1103;DHT22;538;42.654;23.376;2023-06-01T12:44:31;17.50;68.80
1103;DHT22;538;42.654;23.376;2023-06-01T12:46:59;17.50;72.40
1103;DHT22;538;42.654;23.376;2023-06-01T12:49:28;17.60;73.20
1103;DHT22;538;42.654;23.376;2023-06-01T12:51:55;17.50;72.10
1103;DHT22;538;42.654;23.376;2023-06-01T12:54:24;17.60;79.40
1103;DHT22;538;42.654;23.376;2023-06-01T12:56:51;17.50;82.60
1103;DHT22;538;42.654;23.376;2023-06-01T12:59:18;17.70;84.30
1103;DHT22;538;42.654;23.376;2023-06-01T13:04:14;17.90;85.80
1103;DHT22;538;42.654;23.376;2023-06-01T13:06:41;18.40;85.70
1103;DHT22;538;42.654;23.376;2023-06-01T13:09:10;18.70;81.70
1103;DHT22;538;42.654;23.376;2023-06-01T13:11:40;18.80;69.80
1103;DHT22;538;42.654;23.376;2023-06-01T13:16:35;19.30;63.30
1103;DHT22;538;42.654;23.376;2023-06-01T13:21:30;19.60;60.00
1103;DHT22;538;42.654;23.376;2023-06-01T13:23:59;19.80;46.10
1103;DHT22;538;42.654;23.376;2023-06-01T13:28:55;20.20;47.90
1103;DHT22;538;42.654;23.376;2023-06-01T13:33:49;20.50;52.40
1103;DHT22;538;42.654;23.376;2023-06-01T13:36:16;21.60;57.10
1103;DHT22;538;42.654;23.376;2023-06-01T13:38:43;23.00;48.70
1103;DHT22;538;42.654;23.376;2023-06-01T13:46:07;27.60;17.60
1103;DHT22;538;42.654;23.376;2023-06-01T13:48:35;28.00;12.30
1103;DHT22;538;42.654;23.376;2023-06-01T13:51:03;28.00;12.30
1103;DHT22;538;42.654;23.376;2023-06-01T13:55:58;27.30;12.20
1103;DHT22;538;42.654;23.376;2023-06-01T14:00:53;27.60;13.70
1103;DHT22;538;42.654;23.376;2023-06-01T14:03:21;27.90;13.50
1103;DHT22;538;42.654;23.376;2023-06-01T14:08:16;26.60;13.30
1103;DHT22;538;42.654;23.376;2023-06-01T14:10:43;25.60;15.20
1103;DHT22;538;42.654;23.376;2023-06-01T14:13:10;25.00;16.00
1103;DHT22;538;42.654;23.376;2023-06-01T14:15:37;24.50;17.60
1103;DHT22;538;42.654;23.376;2023-06-01T14:18:04;23.70;18.60
1103;DHT22;538;42.654;23.376;2023-06-01T14:20:34;23.10;21.30
1103;DHT22;538;42.654;23.376;2023-06-01T14:23:03;22.80;24.10
1103;DHT22;538;42.654;23.376;2023-06-01T14:25:34;22.70;28.10
1103;DHT22;538;42.654;23.376;2023-06-01T14:28:04;22.20;25.40
1103;DHT22;538;42.654;23.376;2023-06-01T14:30:34;21.90;25.20
1103;DHT22;538;42.654;23.376;2023-06-01T14:35:29;21.20;26.30
1103;DHT22;538;42.654;23.376;2023-06-01T14:38:02;21.00;28.30
1103;DHT22;538;42.654;23.376;2023-06-01T14:40:34;20.90;30.00
1103;DHT22;538;42.654;23.376;2023-06-01T14:43:01;20.80;31.90
1103;DHT22;538;42.654;23.376;2023-06-01T14:45:29;20.70;32.30
1103;DHT22;538;42.654;23.376;2023-06-01T14:47:56;20.60;33.20
1103;DHT22;538;42.654;23.376;2023-06-01T14:52:54;20.50;35.30
1103;DHT22;538;42.654;23.376;2023-06-01T14:55:26;20.20;34.20
1103;DHT22;538;42.654;23.376;2023-06-01T14:57:53;20.10;34.20
1103;DHT22;538;42.654;23.376;2023-06-01T15:02:48;20.00;34.70
1103;DHT22;538;42.654;23.376;2023-06-01T15:05:16;20.00;35.60
1103;DHT22;538;42.654;23.376;2023-06-01T15:10:15;19.60;37.90
1103;DHT22;538;42.654;23.376;2023-06-01T15:12:43;19.40;38.10
1103;DHT22;538;42.654;23.376;2023-06-01T15:15:10;19.50;39.20
1103;DHT22;538;42.654;23.376;2023-06-01T15:20:06;19.50;39.70
1103;DHT22;538;42.654;23.376;2023-06-01T15:25:01;19.60;40.80
1103;DHT22;538;42.654;23.376;2023-06-01T15:29:57;19.70;43.60
1103;DHT22;538;42.654;23.376;2023-06-01T15:32:24;19.70;46.40
1103;DHT22;538;42.654;23.376;2023-06-01T15:34:51;19.80;49.20
1103;DHT22;538;42.654;23.376;2023-06-01T15:37:18;19.80;47.60
1103;DHT22;538;42.654;23.376;2023-06-01T15:42:13;19.90;47.60
1103;DHT22;538;42.654;23.376;2023-06-01T15:44:41;19.80;46.40
1103;DHT22;538;42.654;23.376;2023-06-01T15:47:11;19.70;49.30
1103;DHT22;538;42.654;23.376;2023-06-01T15:49:39;19.60;47.90
1103;DHT22;538;42.654;23.376;2023-06-01T15:52:06;19.30;49.70
1103;DHT22;538;42.654;23.376;2023-06-01T15:54:35;19.30;51.20
1103;DHT22;538;42.654;23.376;2023-06-01T15:57:03;19.20;52.10
1103;DHT22;538;42.654;23.376;2023-06-01T16:04:27;18.70;53.70
1103;DHT22;538;42.654;23.376;2023-06-01T16:11:52;18.70;51.10
1103;DHT22;538;42.654;23.376;2023-06-01T16:14:19;18.80;50.60
1103;DHT22;538;42.654;23.376;2023-06-01T16:16:46;18.80;48.60
1103;DHT22;538;42.654;23.376;2023-06-01T16:19:13;18.60;48.70
1103;DHT22;538;42.654;23.376;2023-06-01T16:21:42;19.00;49.20
1103;DHT22;538;42.654;23.376;2023-06-01T16:26:36;19.10;46.30
1103;DHT22;538;42.654;23.376;2023-06-01T16:29:03;19.10;43.90
1103;DHT22;538;42.654;23.376;2023-06-01T16:31:30;19.10;42.90
1103;DHT22;538;42.654;23.376;2023-06-01T16:36:25;19.10;44.40
1103;DHT22;538;42.654;23.376;2023-06-01T16:38:53;19.10;45.20
1103;DHT22;538;42.654;23.376;2023-06-01T16:41:20;19.10;45.90
1103;DHT22;538;42.654;23.376;2023-06-01T16:43:49;19.20;47.30
1103;DHT22;538;42.654;23.376;2023-06-01T16:46:16;19.10;48.80
1103;DHT22;538;42.654;23.376;2023-06-01T16:48:43;19.10;50.80
1103;DHT22;538;42.654;23.376;2023-06-01T16:51:10;19.10;52.60
1103;DHT22;538;42.654;23.376;2023-06-01T16:53:37;19.10;54.10
1103;DHT22;538;42.654;23.376;2023-06-01T16:56:06;19.00;55.00
1103;DHT22;538;42.654;23.376;2023-06-01T16:58:33;19.00;56.30
1103;DHT22;538;42.654;23.376;2023-06-01T17:01:00;19.00;57.20
1103;DHT22;538;42.654;23.376;2023-06-01T17:05:56;18.80;56.30
1103;DHT22;538;42.654;23.376;2023-06-01T17:08:23;18.90;55.70
1103;DHT22;538;42.654;23.376;2023-06-01T17:13:18;18.70;54.80
1103;DHT22;538;42.654;23.376;2023-06-01T17:15:45;18.80;55.50
1103;DHT22;538;42.654;23.376;2023-06-01T17:18:12;19.00;55.60
1103;DHT22;538;42.654;23.376;2023-06-01T17:20:40;18.80;53.80
1103;DHT22;538;42.654;23.376;2023-06-01T17:23:07;18.90;52.50
1103;DHT22;538;42.654;23.376;2023-06-01T17:25:35;18.90;52.40
1103;DHT22;538;42.654;23.376;2023-06-01T17:28:02;18.90;53.80
1103;DHT22;538;42.654;23.376;2023-06-01T17:30:30;19.10;54.10
1103;DHT22;538;42.654;23.376;2023-06-01T17:32:57;19.20;54.30
1103;DHT22;538;42.654;23.376;2023-06-01T17:35:24;19.10;55.50
1103;DHT22;538;42.654;23.376;2023-06-01T17:37:51;18.90;55.80
1103;DHT22;538;42.654;23.376;2023-06-01T17:42:46;18.90;55.30
1103;DHT22;538;42.654;23.376;2023-06-01T17:45:13;18.70;56.00
1103;DHT22;538;42.654;23.376;2023-06-01T17:47:42;18.90;56.00
1103;DHT22;538;42.654;23.376;2023-06-01T17:52:36;18.70;56.70
1103;DHT22;538;42.654;23.376;2023-06-01T17:55:04;17.90;57.20
1103;DHT22;538;42.654;23.376;2023-06-01T17:57:31;18.60;60.20
1103;DHT22;538;42.654;23.376;2023-06-01T17:59:58;18.60;61.90
1103;DHT22;538;42.654;23.376;2023-06-01T18:04:54;18.70;62.00
1103;DHT22;538;42.654;23.376;2023-06-01T18:07:21;18.60;61.30
1103;DHT22;538;42.654;23.376;2023-06-01T18:12:18;18.70;62.70
1103;DHT22;538;42.654;23.376;2023-06-01T18:14:46;18.60;61.40
1103;DHT22;538;42.654;23.376;2023-06-01T18:17:14;18.70;61.10
1103;DHT22;538;42.654;23.376;2023-06-01T18:19:41;18.90;61.60
1103;DHT22;538;42.654;23.376;2023-06-01T18:22:10;18.70;59.90
1103;DHT22;538;42.654;23.376;2023-06-01T18:27:05;18.80;56.30
1103;DHT22;538;42.654;23.376;2023-06-01T18:29:32;18.70;55.00
1103;DHT22;538;42.654;23.376;2023-06-01T18:31:59;18.60;54.50
1103;DHT22;538;42.654;23.376;2023-06-01T18:34:27;18.60;54.50
1103;DHT22;538;42.654;23.376;2023-06-01T18:39:25;18.50;55.90
1103;DHT22;538;42.654;23.376;2023-06-01T18:41:52;18.60;56.60
1103;DHT22;538;42.654;23.376;2023-06-01T18:44:28;18.30;55.80
1103;DHT22;538;42.654;23.376;2023-06-01T18:46:55;18.50;55.70
1103;DHT22;538;42.654;23.376;2023-06-01T18:49:29;18.30;56.10
1103;DHT22;538;42.654;23.376;2023-06-01T18:51:59;18.20;57.20
1103;DHT22;538;42.654;23.376;2023-06-01T18:54:33;17.90;58.50
1103;DHT22;538;42.654;23.376;2023-06-01T18:57:00;18.00;60.50
1103;DHT22;538;42.654;23.376;2023-06-01T18:59:27;18.00;62.00
1103;DHT22;538;42.654;23.376;2023-06-01T19:04:22;17.90;61.20
1103;DHT22;538;42.654;23.376;2023-06-01T19:06:49;18.10;62.00
1103;DHT22;538;42.654;23.376;2023-06-01T19:09:20;18.00;62.10
1103;DHT22;538;42.654;23.376;2023-06-01T19:11:48;18.00;62.10
1103;DHT22;538;42.654;23.376;2023-06-01T19:14:16;18.10;62.20
1103;DHT22;538;42.654;23.376;2023-06-01T19:19:12;18.00;61.20
1103;DHT22;538;42.654;23.376;2023-06-01T19:21:39;18.00;61.60
1103;DHT22;538;42.654;23.376;2023-06-01T19:24:08;17.90;59.00
1103;DHT22;538;42.654;23.376;2023-06-01T19:26:38;17.80;55.70
1103;DHT22;538;42.654;23.376;2023-06-01T19:29:09;17.70;56.30
1103;DHT22;538;42.654;23.376;2023-06-01T19:31:38;17.60;57.20
1103;DHT22;538;42.654;23.376;2023-06-01T19:34:08;17.60;58.00
1103;DHT22;538;42.654;23.376;2023-06-01T19:36:51;17.50;59.50
1103;DHT22;538;42.654;23.376;2023-06-01T19:39:38;17.40;60.80
1103;DHT22;538;42.654;23.376;2023-06-01T19:45:02;17.10;61.20
1103;DHT22;538;42.654;23.376;2023-06-01T19:47:39;17.40;61.80
1103;DHT22;538;42.654;23.376;2023-06-01T19:53:12;17.20;61.20
1103;DHT22;538;42.654;23.376;2023-06-01T19:55:40;17.20;61.60
1103;DHT22;538;42.654;23.376;2023-06-01T19:58:08;17.00;62.50
1103;DHT22;538;42.654;23.376;2023-06-01T20:00:37;17.10;62.00
1103;DHT22;538;42.654;23.376;2023-06-01T20:03:07;17.30;62.20
1103;DHT22;538;42.654;23.376;2023-06-01T20:05:37;17.20;62.00
1103;DHT22;538;42.654;23.376;2023-06-01T20:08:07;17.10;61.20
1103;DHT22;538;42.654;23.376;2023-06-01T20:10:35;17.20;61.30
1103;DHT22;538;42.654;23.376;2023-06-01T20:13:02;17.20;60.70
1103;DHT22;538;42.654;23.376;2023-06-01T20:15:31;17.10;61.20
1103;DHT22;538;42.654;23.376;2023-06-01T20:18:00;17.10;61.20
1103;DHT22;538;42.654;23.376;2023-06-01T20:20:30;16.90;60.30